createdAt,value
2019-04-04T00:01:40.369Z,6.30
2019-04-04T00:04:13.153Z,6.30
2019-04-04T00:06:45.931Z,6.30
2019-04-04T00:09:18.747Z,6.20
2019-04-04T00:11:51.514Z,6.10
2019-04-04T00:14:24.311Z,6.10
2019-04-04T00:16:57.273Z,6.00
2019-04-04T00:19:30.603Z,6.00
2019-04-04T00:22:05.077Z,6.00
2019-04-04T00:24:39.505Z,5.90
2019-04-04T00:27:13.688Z,6.00
2019-04-04T00:29:47.978Z,5.90
2019-04-04T00:32:21.777Z,5.90
2019-04-04T00:34:54.585Z,5.90
2019-04-04T00:37:27.296Z,5.90
2019-04-04T00:40:00.083Z,5.90
2019-04-04T00:42:33.004Z,5.80
2019-04-04T00:45:06.471Z,5.80
2019-04-04T00:47:39.453Z,5.80
2019-04-04T00:50:12.462Z,5.80
2019-04-04T00:52:45.407Z,5.70
2019-04-04T00:55:18.525Z,5.80
2019-04-04T00:57:51.363Z,5.80
2019-04-04T01:00:24.636Z,5.80
2019-04-04T01:03:00.616Z,5.80
2019-04-04T01:05:33.498Z,5.70
2019-04-04T01:08:07.008Z,5.70
2019-04-04T01:10:40.439Z,5.70
2019-04-04T01:13:13.378Z,5.70
2019-04-04T01:15:46.112Z,5.60
2019-04-04T01:18:18.973Z,5.60
2019-04-04T01:20:52.044Z,5.60
2019-04-04T01:23:27.188Z,5.60
2019-04-04T01:26:01.330Z,5.50
2019-04-04T01:28:37.102Z,5.40
2019-04-04T01:31:14.592Z,5.40
2019-04-04T01:33:46.139Z,5.40
2019-04-04T01:36:19.028Z,5.30
2019-04-04T01:38:51.943Z,5.30
2019-04-04T01:41:24.669Z,5.30
2019-04-04T01:44:04.759Z,5.30
2019-04-04T01:46:32.289Z,5.30
2019-04-04T01:49:05.211Z,5.30
2019-04-04T01:51:38.127Z,5.30
2019-04-04T01:54:10.819Z,5.30
2019-04-04T01:56:43.798Z,5.20
2019-04-04T01:59:16.535Z,5.20
2019-04-04T02:01:50.518Z,5.20
2019-04-04T02:04:24.792Z,5.30
2019-04-04T02:06:59.167Z,5.20
2019-04-04T02:09:34.624Z,5.20
2019-04-04T02:12:08.009Z,5.20
2019-04-04T02:14:43.138Z,5.20
2019-04-04T02:17:16.129Z,5.20
2019-04-04T02:19:48.888Z,5.20
2019-04-04T02:22:21.633Z,5.20
2019-04-04T02:24:54.578Z,5.10
2019-04-04T02:27:27.467Z,5.20
2019-04-04T02:30:00.217Z,5.20
2019-04-04T02:32:33.188Z,5.30
2019-04-04T02:35:10.126Z,5.20
2019-04-04T02:37:41.193Z,5.20
2019-04-04T02:40:14.484Z,5.20
2019-04-04T02:42:54.054Z,5.20
2019-04-04T02:45:25.238Z,5.30
2019-04-04T02:47:58.117Z,5.30
2019-04-04T02:50:34.473Z,5.30
2019-04-04T02:53:05.794Z,5.40
2019-04-04T02:55:38.758Z,5.40
2019-04-04T02:58:15.104Z,5.50
2019-04-04T03:00:46.602Z,5.50
2019-04-04T03:03:19.735Z,5.60
2019-04-04T03:05:52.631Z,5.50
2019-04-04T03:08:26.449Z,5.60
2019-04-04T03:10:59.599Z,5.60
2019-04-04T03:13:32.527Z,5.70
2019-04-04T03:16:05.415Z,5.60
2019-04-04T03:18:38.422Z,5.60
2019-04-04T03:21:11.293Z,5.50
2019-04-04T03:23:44.194Z,5.50
2019-04-04T03:26:20.068Z,5.50
2019-04-04T03:28:51.861Z,5.50
2019-04-04T03:31:24.870Z,5.60
2019-04-04T03:33:57.930Z,5.60
2019-04-04T03:36:33.836Z,5.60
2019-04-04T03:39:06.395Z,5.60
2019-04-04T03:41:39.323Z,5.50
2019-04-04T03:44:12.184Z,5.50
2019-04-04T03:46:45.445Z,5.50
2019-04-04T03:49:18.302Z,5.50
2019-04-04T03:51:51.259Z,5.50
2019-04-04T03:54:26.423Z,5.50
2019-04-04T03:56:59.255Z,5.60
2019-04-04T03:59:33.206Z,5.60
2019-04-04T04:02:06.136Z,5.50
2019-04-04T04:04:38.916Z,5.50
2019-04-04T04:07:15.171Z,5.50
2019-04-04T04:09:46.987Z,5.50
2019-04-04T04:12:19.935Z,5.50
2019-04-04T04:14:54.935Z,5.50
2019-04-04T04:17:27.940Z,5.50
2019-04-04T04:20:04.223Z,5.50
2019-04-04T04:22:35.683Z,5.50
2019-04-04T04:25:08.532Z,5.50
2019-04-04T04:27:41.536Z,5.50
2019-04-04T04:30:14.408Z,5.50
2019-04-04T04:32:47.438Z,5.50
2019-04-04T04:35:20.652Z,5.50
2019-04-04T04:37:53.918Z,5.40
2019-04-04T04:40:27.239Z,5.40
2019-04-04T04:43:01.033Z,5.40
2019-04-04T04:45:34.121Z,5.30
2019-04-04T04:48:07.162Z,5.30
2019-04-04T04:50:40.627Z,5.30
2019-04-04T04:53:14.105Z,5.30
2019-04-04T04:55:47.101Z,5.30
2019-04-04T04:58:20.117Z,5.30
2019-04-04T05:00:53.024Z,5.40
2019-04-04T05:03:25.941Z,5.40
2019-04-04T05:06:00.495Z,5.40
2019-04-04T05:08:33.599Z,5.40
2019-04-04T05:11:06.667Z,5.40
2019-04-04T05:13:39.577Z,5.40
2019-04-04T05:16:12.396Z,5.40
2019-04-04T05:18:47.486Z,5.50
2019-04-04T05:21:25.080Z,5.60
2019-04-04T05:23:55.295Z,5.60
2019-04-04T05:26:28.175Z,5.60
2019-04-04T05:29:01.372Z,5.50
2019-04-04T05:31:34.601Z,5.60
2019-04-04T05:34:07.811Z,5.60
2019-04-04T05:36:40.911Z,5.60
2019-04-04T05:39:14.047Z,5.70
2019-04-04T05:41:47.026Z,5.70
2019-04-04T05:44:20.176Z,5.70
2019-04-04T05:46:53.197Z,5.70
2019-04-04T05:49:26.094Z,5.80
2019-04-04T05:51:59.196Z,5.80
2019-04-04T05:54:32.068Z,5.80
2019-04-04T05:57:05.905Z,5.80
2019-04-04T05:59:38.911Z,5.80
2019-04-04T06:02:12.171Z,5.90
2019-04-04T06:04:45.186Z,5.90
2019-04-04T06:07:18.128Z,5.90
2019-04-04T06:09:52.948Z,5.90
2019-04-04T06:12:26.393Z,6.00
2019-04-04T06:15:00.596Z,6.00
2019-04-04T06:17:33.879Z,6.10
2019-04-04T06:20:07.701Z,6.10
2019-04-04T06:22:40.466Z,6.10
2019-04-04T06:25:13.729Z,6.20
2019-04-04T06:27:46.689Z,6.20
2019-04-04T06:30:20.241Z,6.40
2019-04-04T06:32:53.898Z,6.40
2019-04-04T06:35:26.827Z,6.50
2019-04-04T06:37:59.763Z,6.60
2019-04-04T06:40:32.778Z,6.60
2019-04-04T06:43:10.292Z,6.60
2019-04-04T06:45:41.641Z,6.70
2019-04-04T06:48:14.827Z,6.70
2019-04-04T06:50:47.657Z,6.70
2019-04-04T06:53:22.221Z,6.80
2019-04-04T06:55:55.362Z,6.80
2019-04-04T06:58:28.399Z,6.90
2019-04-04T07:01:01.361Z,6.90
2019-04-04T07:03:35.224Z,6.90
2019-04-04T07:06:10.242Z,6.90
2019-04-04T07:08:42.717Z,7.00
2019-04-04T07:11:21.589Z,7.00
2019-04-04T07:13:51.010Z,7.00
2019-04-04T07:16:24.234Z,7.10
2019-04-04T07:18:57.377Z,7.10
2019-04-04T07:21:30.373Z,7.10
2019-04-04T07:24:03.464Z,7.10
2019-04-04T07:26:36.537Z,7.00
2019-04-04T07:29:09.790Z,7.00
2019-04-04T07:31:42.643Z,7.00
2019-04-04T07:34:15.593Z,7.10
2019-04-04T07:36:49.135Z,7.00
2019-04-04T07:39:23.412Z,7.00
2019-04-04T07:41:56.345Z,7.00
2019-04-04T07:44:29.273Z,7.10
2019-04-04T07:47:02.345Z,7.20
2019-04-04T07:49:35.263Z,7.20
2019-04-04T07:52:08.495Z,7.20
2019-04-04T07:54:41.378Z,7.20
2019-04-04T07:57:14.487Z,7.20
2019-04-04T07:59:47.243Z,7.20
2019-04-04T08:02:20.095Z,7.10
2019-04-04T08:04:52.978Z,7.10
2019-04-04T08:07:25.943Z,7.10
2019-04-04T08:09:59.006Z,7.00
2019-04-04T08:12:31.855Z,7.10
2019-04-04T08:15:06.629Z,7.00
2019-04-04T08:17:39.468Z,7.00
2019-04-04T08:20:12.864Z,7.00
2019-04-04T08:22:45.805Z,7.10
2019-04-04T08:25:18.575Z,7.10
2019-04-04T08:27:51.754Z,7.20
2019-04-04T08:30:24.811Z,7.30
2019-04-04T08:32:57.959Z,7.30
2019-04-04T08:35:31.178Z,7.30
2019-04-04T08:38:04.381Z,7.30
2019-04-04T08:40:37.349Z,7.20
2019-04-04T08:43:10.296Z,7.20
2019-04-04T08:45:43.295Z,7.20
2019-04-04T08:48:17.479Z,7.20
2019-04-04T08:50:50.364Z,7.10
2019-04-04T08:53:23.265Z,7.10
2019-04-04T08:55:56.077Z,7.10
2019-04-04T08:58:29.153Z,7.20
2019-04-04T09:01:02.115Z,7.30
2019-04-04T09:03:35.274Z,7.30
2019-04-04T09:06:08.264Z,7.20
2019-04-04T09:08:41.361Z,7.20
2019-04-04T09:11:14.350Z,7.20
2019-04-04T09:13:47.420Z,7.20
2019-04-04T09:16:20.444Z,7.30
2019-04-04T09:18:53.404Z,7.30
2019-04-04T09:21:26.364Z,7.30
2019-04-04T09:24:00.845Z,7.40
2019-04-04T09:26:34.076Z,7.50
2019-04-04T09:29:07.041Z,7.60
2019-04-04T09:31:40.086Z,7.70
2019-04-04T09:34:32.444Z,7.70
2019-04-04T09:37:08.681Z,7.80
2019-04-04T09:39:40.116Z,7.90
2019-04-04T09:42:13.066Z,7.90
2019-04-04T09:44:46.098Z,7.90
2019-04-04T09:47:19.492Z,8.00
2019-04-04T09:49:52.370Z,8.10
2019-04-04T09:52:25.284Z,8.20
2019-04-04T09:54:58.471Z,8.30
2019-04-04T09:57:31.405Z,8.30
2019-04-04T10:00:08.500Z,8.30
2019-04-04T10:02:41.708Z,8.30
2019-04-04T10:05:15.156Z,8.30
2019-04-04T10:07:48.130Z,8.40
2019-04-04T10:10:20.946Z,8.50
2019-04-04T10:12:54.042Z,8.50
2019-04-04T10:15:27.322Z,8.50
2019-04-04T10:18:00.252Z,8.60
2019-04-04T10:20:33.134Z,8.50
2019-04-04T10:23:06.225Z,8.50
2019-04-04T10:25:39.507Z,8.30
2019-04-04T10:28:12.465Z,8.20
2019-04-04T10:30:45.506Z,8.20
2019-04-04T10:33:18.479Z,8.30
2019-04-04T10:35:51.250Z,8.40
2019-04-04T10:38:24.292Z,8.60
2019-04-04T10:40:57.075Z,8.80
2019-04-04T10:43:30.156Z,8.90
2019-04-04T10:46:02.981Z,9.00
2019-04-04T10:48:36.842Z,8.90
2019-04-04T10:51:10.016Z,8.80
2019-04-04T10:53:43.110Z,8.70
2019-04-04T10:56:17.245Z,8.80
2019-04-04T10:58:50.266Z,8.70
2019-04-04T11:01:23.023Z,8.80
2019-04-04T11:03:56.988Z,8.80
2019-04-04T11:06:29.965Z,8.70
2019-04-04T11:09:04.530Z,8.60
2019-04-04T11:11:38.588Z,8.50
2019-04-04T11:14:11.388Z,8.30
2019-04-04T11:16:45.061Z,8.20
2019-04-04T11:19:30.356Z,8.10
2019-04-04T11:21:52.677Z,7.80
2019-04-04T11:24:25.702Z,7.70
2019-04-04T11:26:58.696Z,7.70
2019-04-04T11:29:31.523Z,7.70
2019-04-04T11:32:04.416Z,7.70
2019-04-04T11:34:37.216Z,7.70
2019-04-04T11:37:10.016Z,7.70
2019-04-04T11:39:54.089Z,7.40
2019-04-04T11:42:17.772Z,7.50
2019-04-04T11:44:51.972Z,7.60
2019-04-04T11:47:24.898Z,7.60
2019-04-04T11:49:57.853Z,7.40
2019-04-04T11:52:30.932Z,7.30
2019-04-04T11:55:04.266Z,7.50
2019-04-04T11:57:37.087Z,7.40
2019-04-04T12:00:12.212Z,7.60
2019-04-04T12:02:45.173Z,7.80
2019-04-04T12:05:18.155Z,7.90
2019-04-04T12:07:51.272Z,7.80
2019-04-04T12:10:24.238Z,7.80
2019-04-04T12:12:58.675Z,7.90
2019-04-04T12:15:31.782Z,7.80
2019-04-04T12:18:04.573Z,7.90
2019-04-04T12:20:37.727Z,8.10
2019-04-04T12:23:10.624Z,8.00
2019-04-04T12:25:43.424Z,8.10
2019-04-04T12:28:16.178Z,8.30
2019-04-04T12:30:49.107Z,8.40
2019-04-04T12:33:22.114Z,8.50
2019-04-04T12:35:55.016Z,8.70
2019-04-04T12:38:27.783Z,8.70
2019-04-04T12:41:00.642Z,8.90
2019-04-04T12:43:33.497Z,9.00
2019-04-04T12:46:06.251Z,8.80
2019-04-04T12:48:39.061Z,8.60
2019-04-04T12:51:11.868Z,8.20
2019-04-04T12:53:44.844Z,8.10
2019-04-04T12:56:17.733Z,8.10
2019-04-04T12:58:51.052Z,8.20
2019-04-04T13:01:24.197Z,8.30
2019-04-04T13:03:57.062Z,8.30
2019-04-04T13:06:29.845Z,8.20
2019-04-04T13:09:04.667Z,8.10
2019-04-04T13:11:38.447Z,8.20
2019-04-04T13:14:11.473Z,8.20
2019-04-04T13:16:44.329Z,8.10
2019-04-04T13:19:17.386Z,8.10
2019-04-04T13:21:50.342Z,8.10
2019-04-04T13:24:23.225Z,8.10
2019-04-04T13:26:56.005Z,8.20
2019-04-04T13:29:28.880Z,8.20
2019-04-04T13:32:01.848Z,8.30
2019-04-04T13:34:34.922Z,8.40
2019-04-04T13:37:07.864Z,8.40
2019-04-04T13:39:41.814Z,8.20
2019-04-04T13:42:14.595Z,8.30
2019-04-04T13:44:47.635Z,8.30
2019-04-04T13:47:20.528Z,8.40
2019-04-04T13:49:53.339Z,8.20
2019-04-04T13:52:27.064Z,8.20
2019-04-04T13:55:00.174Z,8.00
2019-04-04T13:57:33.034Z,7.70
2019-04-04T14:00:07.444Z,7.60
2019-04-04T14:02:40.825Z,7.60
2019-04-04T14:05:14.423Z,7.70
2019-04-04T14:07:47.566Z,7.60
2019-04-04T14:10:20.690Z,7.50
2019-04-04T14:12:53.509Z,7.50
2019-04-04T14:15:26.433Z,7.40
2019-04-04T14:17:59.415Z,7.40
2019-04-04T14:20:32.344Z,7.50
2019-04-04T14:23:05.293Z,7.70
2019-04-04T14:25:38.518Z,7.80
2019-04-04T14:28:11.750Z,7.90
2019-04-04T14:30:44.783Z,8.00
2019-04-04T14:33:18.115Z,8.10
2019-04-04T14:35:51.099Z,8.20
2019-04-04T14:38:23.883Z,8.10
2019-04-04T14:40:57.075Z,8.00
2019-04-04T14:43:30.473Z,8.00
2019-04-04T14:46:03.679Z,8.00
2019-04-04T14:48:37.376Z,8.20
2019-04-04T14:51:10.285Z,8.20
2019-04-04T14:53:43.861Z,8.20
2019-04-04T14:56:16.706Z,8.40
2019-04-04T14:58:49.763Z,8.40
2019-04-04T15:01:22.752Z,8.40
2019-04-04T15:03:55.839Z,8.30
2019-04-04T15:06:28.912Z,8.40
2019-04-04T15:09:01.911Z,8.50
2019-04-04T15:11:36.616Z,8.60
2019-04-04T15:14:09.664Z,8.70
2019-04-04T15:16:42.494Z,8.90
2019-04-04T15:19:15.493Z,8.80
2019-04-04T15:21:48.541Z,8.70
2019-04-04T15:24:21.526Z,8.70
2019-04-04T15:26:54.443Z,8.60
2019-04-04T15:29:27.478Z,8.60
2019-04-04T15:32:00.241Z,8.70
2019-04-04T15:34:33.001Z,8.70
2019-04-04T15:37:06.084Z,8.60
2019-04-04T15:39:39.074Z,8.50
2019-04-04T15:42:11.991Z,8.50
2019-04-04T15:44:44.884Z,8.50
2019-04-04T15:47:17.795Z,8.30
2019-04-04T15:49:50.851Z,8.30
2019-04-04T15:52:23.829Z,8.30
2019-04-04T15:54:56.720Z,8.40
2019-04-04T15:57:29.672Z,8.50
2019-04-04T16:00:02.585Z,8.60
2019-04-04T16:02:37.372Z,8.80
2019-04-04T16:05:10.380Z,9.00
2019-04-04T16:07:43.385Z,9.10
2019-04-04T16:10:16.365Z,9.40
2019-04-04T16:12:49.192Z,9.60
2019-04-04T16:15:25.283Z,9.50
2019-04-04T16:18:04.830Z,9.50
2019-04-04T16:20:38.480Z,9.20
2019-04-04T16:23:11.538Z,9.00
2019-04-04T16:25:44.510Z,9.00
2019-04-04T16:28:17.456Z,9.00
2019-04-04T16:30:50.446Z,8.90
2019-04-04T16:33:26.321Z,8.80
2019-04-04T16:35:58.091Z,8.80
2019-04-04T16:38:30.972Z,8.70
2019-04-04T16:41:05.104Z,8.70
2019-04-04T16:43:39.045Z,8.50
2019-04-04T16:46:13.032Z,8.40
2019-04-04T16:48:46.076Z,8.50
2019-04-04T16:51:38.513Z,8.70
2019-04-04T16:54:11.524Z,8.70
2019-04-04T16:56:44.427Z,8.60
2019-04-04T16:59:17.357Z,8.50
2019-04-04T17:01:50.382Z,8.40
2019-04-04T17:04:23.572Z,8.00
2019-04-04T17:06:56.567Z,8.10
2019-04-04T17:09:29.477Z,8.00
2019-04-04T17:12:14.194Z,7.80
2019-04-04T17:14:37.324Z,7.70
2019-04-04T17:17:10.268Z,7.70
2019-04-04T17:19:43.116Z,7.80
2019-04-04T17:22:16.226Z,7.80
2019-04-04T17:24:49.311Z,7.80
2019-04-04T17:27:22.367Z,7.80
2019-04-04T17:29:55.794Z,7.70
2019-04-04T17:32:29.385Z,7.60
2019-04-04T17:35:02.831Z,7.50
2019-04-04T17:37:35.927Z,7.50
2019-04-04T17:40:09.474Z,7.50
2019-04-04T17:42:42.990Z,7.40
2019-04-04T17:45:17.606Z,7.40
2019-04-04T17:47:50.385Z,7.30
2019-04-04T17:50:24.071Z,7.30
2019-04-04T17:52:57.123Z,7.20
2019-04-04T17:55:30.413Z,7.10
2019-04-04T17:58:03.818Z,7.20
2019-04-04T18:00:36.645Z,7.20
2019-04-04T18:03:09.852Z,7.30
2019-04-04T18:05:42.982Z,7.40
2019-04-04T18:08:16.008Z,7.30
2019-04-04T18:10:48.951Z,7.30
2019-04-04T18:13:22.078Z,7.30
2019-04-04T18:15:55.051Z,7.40
2019-04-04T18:18:28.087Z,7.30
2019-04-04T18:21:01.332Z,7.30
2019-04-04T18:23:34.426Z,7.30
2019-04-04T18:26:07.461Z,7.30
2019-04-04T18:28:40.498Z,7.30
2019-04-04T18:31:13.436Z,7.30
2019-04-04T18:33:46.513Z,7.30
2019-04-04T18:36:19.638Z,7.30
2019-04-04T18:38:52.807Z,7.20
2019-04-04T18:41:25.661Z,7.30
2019-04-04T18:43:58.480Z,7.20
2019-04-04T18:46:31.601Z,7.20
2019-04-04T18:49:04.707Z,7.30
2019-04-04T18:51:37.901Z,7.20
2019-04-04T18:54:10.873Z,7.10
2019-04-04T18:56:43.727Z,7.10
2019-04-04T18:59:16.523Z,7.10
2019-04-04T19:01:49.249Z,7.10
2019-04-04T19:04:22.067Z,7.00
2019-04-04T19:06:54.948Z,7.00
2019-04-04T19:09:28.822Z,6.90
2019-04-04T19:12:02.760Z,6.90
2019-04-04T19:14:35.679Z,6.80
2019-04-04T19:17:08.567Z,6.80
2019-04-04T19:19:41.473Z,6.80
2019-04-04T19:22:14.455Z,6.80
2019-04-04T19:24:47.427Z,6.80
2019-04-04T19:27:20.238Z,6.70
2019-04-04T19:29:56.139Z,6.70
2019-04-04T19:32:29.124Z,6.60
2019-04-04T19:35:02.091Z,6.50
2019-04-04T19:37:35.098Z,6.40
2019-04-04T19:40:08.412Z,6.30
2019-04-04T19:42:41.339Z,6.30
2019-04-04T19:45:14.695Z,6.20
2019-04-04T19:47:47.552Z,6.20
2019-04-04T19:50:20.563Z,6.20
2019-04-04T19:52:53.398Z,6.20
2019-04-04T19:55:26.285Z,6.10
2019-04-04T19:58:51.113Z,6.10
2019-04-04T20:01:25.702Z,6.10
2019-04-04T20:03:59.055Z,6.00
2019-04-04T20:06:32.953Z,5.90
2019-04-04T20:09:06.820Z,5.90
2019-04-04T20:11:40.508Z,5.90
2019-04-04T20:14:13.312Z,5.80
2019-04-04T20:16:46.187Z,5.80
2019-04-04T20:19:19.345Z,5.80
2019-04-04T20:21:52.189Z,5.90
2019-04-04T20:24:25.014Z,5.90
2019-04-04T20:26:57.811Z,5.90
2019-04-04T20:29:30.630Z,5.90
2019-04-04T20:32:03.474Z,5.90
2019-04-04T20:34:36.625Z,5.90
2019-04-04T20:37:09.376Z,5.90
2019-04-04T20:39:43.125Z,5.90
2019-04-04T20:42:18.108Z,5.90
2019-04-04T20:44:51.154Z,5.90
2019-04-04T20:47:23.995Z,5.90
2019-04-04T20:49:56.809Z,6.00
2019-04-04T20:52:29.780Z,6.00
2019-04-04T20:55:02.837Z,6.00
2019-04-04T20:57:35.807Z,5.90
2019-04-04T21:00:09.119Z,5.90
2019-04-04T21:02:42.177Z,5.90
2019-04-04T21:05:15.105Z,5.90
2019-04-04T21:07:48.134Z,5.90
2019-04-04T21:10:20.838Z,5.90
2019-04-04T21:12:54.061Z,5.90
2019-04-04T21:15:26.889Z,5.90
2019-04-04T21:17:59.970Z,5.90
2019-04-04T21:20:32.850Z,5.90
2019-04-04T21:23:05.907Z,5.90
2019-04-04T21:25:38.745Z,5.90
2019-04-04T21:28:11.512Z,5.90
2019-04-04T21:30:45.030Z,5.80
2019-04-04T21:33:18.012Z,5.80
2019-04-04T21:35:50.801Z,5.80
2019-04-04T21:38:23.679Z,5.90
2019-04-04T21:40:57.599Z,5.90
2019-04-04T21:43:30.810Z,5.90
2019-04-04T21:46:03.876Z,5.80
2019-04-04T21:48:36.833Z,5.70
2019-04-04T21:51:09.837Z,5.70
2019-04-04T21:53:42.610Z,5.70
2019-04-04T21:56:15.813Z,5.60
2019-04-04T21:58:48.768Z,5.50
2019-04-04T22:01:21.815Z,5.50
2019-04-04T22:03:56.605Z,5.60
2019-04-04T22:06:29.545Z,5.50
2019-04-04T22:09:04.693Z,5.50
2019-04-04T22:11:39.106Z,5.40
2019-04-04T22:14:21.743Z,5.40
2019-04-04T22:16:46.703Z,5.40
2019-04-04T22:19:19.792Z,5.40
2019-04-04T22:21:52.809Z,5.40
2019-04-04T22:24:25.730Z,5.40
2019-04-04T22:26:58.768Z,5.30
2019-04-04T22:29:33.442Z,5.30
2019-04-04T22:32:06.401Z,5.30
2019-04-04T22:34:39.375Z,5.30
2019-04-04T22:37:12.334Z,5.20
2019-04-04T22:39:45.238Z,5.20
2019-04-04T22:42:18.075Z,5.00
2019-04-04T22:44:51.090Z,4.90
2019-04-04T22:47:24.011Z,4.80
2019-04-04T22:49:56.764Z,4.70
2019-04-04T22:52:29.995Z,4.70
2019-04-04T22:55:03.016Z,4.80
2019-04-04T22:57:36.087Z,4.90
2019-04-04T23:00:09.570Z,5.00
2019-04-04T23:02:44.250Z,5.00
2019-04-04T23:05:17.190Z,5.00
2019-04-04T23:07:50.221Z,5.00
2019-04-04T23:10:22.972Z,5.00
2019-04-04T23:12:55.950Z,5.00
2019-04-04T23:15:28.700Z,5.00
2019-04-04T23:18:01.737Z,4.90
2019-04-04T23:20:34.455Z,4.90
2019-04-04T23:23:07.225Z,4.80
2019-04-04T23:25:40.178Z,4.60
2019-04-04T23:28:13.040Z,4.60
2019-04-04T23:30:46.006Z,4.60
2019-04-04T23:33:18.825Z,4.60
2019-04-04T23:35:51.826Z,4.60
2019-04-04T23:38:24.787Z,4.70
2019-04-04T23:40:58.567Z,4.80
2019-04-04T23:43:31.418Z,4.80
2019-04-04T23:46:04.246Z,4.80
2019-04-04T23:48:37.376Z,4.90
2019-04-04T23:51:10.127Z,5.00
2019-04-04T23:53:43.207Z,5.00
2019-04-04T23:56:16.241Z,5.10
2019-04-04T23:58:49.091Z,5.20
